createdAt,value
2019-02-08T00:00:07.980Z,0.00
2019-02-08T00:01:08.012Z,0.00
2019-02-08T00:02:07.950Z,0.00
2019-02-08T00:03:07.943Z,0.00
2019-02-08T00:04:07.933Z,0.00
2019-02-08T00:05:07.930Z,0.00
2019-02-08T00:06:07.907Z,0.00
2019-02-08T00:07:07.914Z,0.00
2019-02-08T00:08:07.895Z,0.00
2019-02-08T00:09:07.876Z,0.00
2019-02-08T00:10:07.872Z,0.00
2019-02-08T00:11:07.860Z,0.00
2019-02-08T00:12:07.891Z,0.00
2019-02-08T00:13:07.841Z,0.00
2019-02-08T00:14:07.833Z,0.00
2019-02-08T00:15:07.819Z,0.00
2019-02-08T00:16:07.807Z,0.00
2019-02-08T00:17:07.799Z,0.00
2019-02-08T00:18:07.821Z,0.00
2019-02-08T00:19:07.776Z,0.00
2019-02-08T00:20:07.768Z,0.00
2019-02-08T00:21:07.757Z,0.00
2019-02-08T00:22:07.744Z,0.00
2019-02-08T00:23:07.737Z,0.00
2019-02-08T00:24:07.732Z,0.00
2019-02-08T00:25:07.716Z,0.00
2019-02-08T00:26:07.705Z,0.00
2019-02-08T00:27:07.699Z,0.00
2019-02-08T00:28:07.692Z,0.00
2019-02-08T00:29:07.680Z,0.00
2019-02-08T00:30:07.668Z,0.00
2019-02-08T00:31:07.647Z,0.00
2019-02-08T00:32:07.642Z,0.00
2019-02-08T00:33:07.627Z,0.00
2019-02-08T00:34:07.629Z,0.00
2019-02-08T00:35:07.609Z,0.00
2019-02-08T00:36:07.591Z,0.00
2019-02-08T00:37:07.581Z,0.00
2019-02-08T00:38:07.576Z,0.00
2019-02-08T00:39:07.571Z,0.00
2019-02-08T00:40:07.550Z,0.00
2019-02-08T00:41:07.540Z,0.00
2019-02-08T00:42:07.528Z,0.00
2019-02-08T00:43:07.523Z,0.00
2019-02-08T00:44:07.531Z,0.00
2019-02-08T00:45:07.498Z,0.00
2019-02-08T00:46:07.487Z,0.00
2019-02-08T00:47:07.477Z,0.00
2019-02-08T00:48:07.471Z,0.00
2019-02-08T00:49:07.456Z,0.00
2019-02-08T00:50:07.464Z,0.00
2019-02-08T00:51:07.443Z,0.00
2019-02-08T00:52:07.429Z,0.00
2019-02-08T00:53:07.422Z,0.00
2019-02-08T00:54:07.409Z,0.00
2019-02-08T00:55:07.424Z,0.00
2019-02-08T00:56:07.384Z,0.00
2019-02-08T00:57:07.376Z,0.00
2019-02-08T00:58:07.360Z,0.00
2019-02-08T00:59:07.358Z,0.00
2019-02-08T01:00:07.339Z,0.00
2019-02-08T01:01:07.340Z,0.00
2019-02-08T01:02:08.901Z,0.00
2019-02-08T01:03:07.313Z,0.00
2019-02-08T01:04:07.303Z,0.00
2019-02-08T01:05:07.295Z,0.00
2019-02-08T01:06:07.285Z,0.00
2019-02-08T01:07:07.280Z,0.00
2019-02-08T01:08:07.269Z,0.00
2019-02-08T01:09:07.289Z,0.00
2019-02-08T01:10:07.243Z,0.00
2019-02-08T01:11:07.233Z,0.00
2019-02-08T01:12:07.228Z,0.00
2019-02-08T01:13:07.205Z,0.00
2019-02-08T01:14:07.195Z,0.00
2019-02-08T01:15:07.195Z,0.00
2019-02-08T01:16:07.176Z,0.00
2019-02-08T01:17:07.164Z,0.00
2019-02-08T01:18:07.196Z,0.00
2019-02-08T01:19:07.141Z,0.00
2019-02-08T01:20:07.138Z,0.00
2019-02-08T01:21:07.136Z,0.00
2019-02-08T01:22:07.113Z,0.00
2019-02-08T01:23:07.107Z,0.00
2019-02-08T01:24:07.103Z,0.00
2019-02-08T01:25:07.080Z,0.00
2019-02-08T01:26:07.068Z,0.00
2019-02-08T01:27:07.059Z,0.00
2019-02-08T01:28:07.054Z,0.00
2019-02-08T01:29:07.046Z,0.00
2019-02-08T01:30:07.033Z,0.00
2019-02-08T01:31:07.022Z,0.00
2019-02-08T01:32:07.022Z,0.00
2019-02-08T01:33:07.002Z,0.00
2019-02-08T01:34:06.988Z,0.00
2019-02-08T01:35:06.981Z,0.00
2019-02-08T01:36:06.979Z,0.00
2019-02-08T01:37:06.956Z,0.00
2019-02-08T01:38:06.952Z,0.00
2019-02-08T01:39:06.951Z,0.00
2019-02-08T01:40:06.930Z,0.00
2019-02-08T01:41:06.927Z,0.00
2019-02-08T01:42:06.909Z,0.00
2019-02-08T01:43:06.930Z,0.00
2019-02-08T01:44:06.884Z,0.00
2019-02-08T01:45:06.877Z,0.00
2019-02-08T01:46:06.864Z,0.00
2019-02-08T01:47:06.852Z,0.00
2019-02-08T01:48:06.855Z,0.00
2019-02-08T01:49:06.849Z,0.00
2019-02-08T01:50:06.829Z,0.00
2019-02-08T01:51:06.814Z,0.00
2019-02-08T01:52:06.798Z,0.00
2019-02-08T01:53:06.846Z,0.00
2019-02-08T01:54:06.781Z,0.00
2019-02-08T01:55:06.782Z,0.00
2019-02-08T01:56:06.767Z,0.00
2019-02-08T01:57:06.752Z,0.00
2019-02-08T01:58:06.748Z,0.00
2019-02-08T01:59:06.726Z,0.00
2019-02-08T02:00:06.716Z,0.00
2019-02-08T02:01:06.719Z,0.00
2019-02-08T02:02:06.700Z,0.00
2019-02-08T02:03:06.686Z,0.00
2019-02-08T02:04:06.679Z,0.00
2019-02-08T02:05:06.669Z,0.00
2019-02-08T02:06:06.667Z,0.00
2019-02-08T02:07:06.650Z,0.00
2019-02-08T02:08:06.632Z,0.00
2019-02-08T02:09:06.639Z,0.00
2019-02-08T02:10:06.619Z,0.00
2019-02-08T02:11:06.611Z,0.00
2019-02-08T02:12:06.598Z,0.00
2019-02-08T02:13:06.597Z,0.00
2019-02-08T02:14:14.524Z,0.00
2019-02-08T02:15:06.579Z,0.00
2019-02-08T02:16:06.555Z,0.00
2019-02-08T02:17:06.545Z,0.00
2019-02-08T02:18:06.543Z,0.00
2019-02-08T02:19:06.528Z,0.00
2019-02-08T02:20:06.512Z,0.00
2019-02-08T02:21:06.517Z,0.00
2019-02-08T02:22:06.487Z,0.00
2019-02-08T02:23:06.478Z,0.00
2019-02-08T02:24:06.472Z,0.00
2019-02-08T02:25:06.465Z,0.00
2019-02-08T02:26:06.454Z,0.00
2019-02-08T02:27:06.442Z,0.00
2019-02-08T02:28:06.431Z,0.00
2019-02-08T02:29:06.432Z,0.00
2019-02-08T02:30:06.411Z,0.00
2019-02-08T02:31:06.414Z,0.00
2019-02-08T02:32:06.389Z,0.00
2019-02-08T02:33:06.375Z,0.00
2019-02-08T02:34:06.370Z,0.00
2019-02-08T02:35:06.356Z,0.00
2019-02-08T02:36:06.345Z,0.00
2019-02-08T02:37:06.352Z,0.00
2019-02-08T02:38:06.329Z,0.00
2019-02-08T02:39:06.318Z,0.00
2019-02-08T02:40:06.319Z,0.00
2019-02-08T02:41:06.298Z,0.00
2019-02-08T02:42:06.295Z,0.00
2019-02-08T02:43:06.286Z,0.00
2019-02-08T02:44:06.273Z,0.00
2019-02-08T02:45:06.256Z,0.00
2019-02-08T02:46:06.239Z,0.00
2019-02-08T02:47:06.237Z,0.00
2019-02-08T02:48:06.226Z,0.00
2019-02-08T02:49:06.212Z,0.00
2019-02-08T02:50:06.241Z,0.00
2019-02-08T02:51:06.186Z,0.00
2019-02-08T02:52:06.176Z,0.00
2019-02-08T02:53:06.171Z,0.00
2019-02-08T02:54:06.166Z,0.00
2019-02-08T02:55:06.145Z,0.00
2019-02-08T02:56:06.144Z,0.00
2019-02-08T02:57:06.124Z,0.00
2019-02-08T02:58:06.154Z,0.00
2019-02-08T02:59:06.105Z,0.00
2019-02-08T03:00:06.098Z,0.00
2019-02-08T03:01:06.084Z,0.00
2019-02-08T03:02:06.078Z,0.00
2019-02-08T03:03:06.071Z,0.00
2019-02-08T03:04:06.066Z,0.00
2019-02-08T03:05:06.047Z,0.00
2019-02-08T03:06:06.035Z,0.00
2019-02-08T03:07:06.023Z,0.00
2019-02-08T03:08:06.017Z,0.00
2019-02-08T03:09:06.011Z,0.00
2019-02-08T03:10:05.999Z,0.00
2019-02-08T03:11:05.994Z,0.00
2019-02-08T03:12:05.972Z,0.00
2019-02-08T03:13:05.960Z,0.00
2019-02-08T03:14:05.966Z,0.00
2019-02-08T03:15:05.948Z,0.00
2019-02-08T03:16:05.938Z,0.00
2019-02-08T03:17:05.927Z,0.00
2019-02-08T03:18:05.919Z,0.00
2019-02-08T03:19:05.900Z,0.00
2019-02-08T03:20:05.893Z,0.00
2019-02-08T03:21:05.879Z,0.00
2019-02-08T03:22:05.879Z,0.00
2019-02-08T03:23:05.853Z,0.00
2019-02-08T03:24:12.935Z,0.00
2019-02-08T03:25:06.835Z,0.00
2019-02-08T03:26:05.824Z,0.00
2019-02-08T03:27:05.826Z,0.00
2019-02-08T03:28:05.824Z,0.00
2019-02-08T03:29:05.802Z,0.00
2019-02-08T03:30:05.787Z,0.00
2019-02-08T03:31:05.779Z,0.00
2019-02-08T03:32:05.762Z,0.00
2019-02-08T03:33:05.765Z,0.00
2019-02-08T03:34:05.742Z,0.00
2019-02-08T03:35:05.734Z,0.00
2019-02-08T03:36:05.731Z,0.00
2019-02-08T03:37:05.714Z,0.00
2019-02-08T03:38:05.708Z,0.00
2019-02-08T03:39:05.691Z,0.00
2019-02-08T03:40:05.690Z,0.00
2019-02-08T03:41:05.670Z,0.00
2019-02-08T03:42:05.665Z,0.00
2019-02-08T03:43:05.646Z,0.00
2019-02-08T03:44:05.637Z,0.00
2019-02-08T03:45:05.633Z,0.00
2019-02-08T03:46:05.617Z,0.00
2019-02-08T03:47:05.614Z,0.00
2019-02-08T03:48:05.603Z,0.00
2019-02-08T03:49:05.580Z,0.00
2019-02-08T03:50:05.573Z,0.00
2019-02-08T03:51:05.558Z,0.00
2019-02-08T03:52:05.550Z,0.00
2019-02-08T03:53:05.582Z,0.00
2019-02-08T03:54:05.533Z,0.00
2019-02-08T03:55:05.521Z,0.00
2019-02-08T03:56:05.507Z,0.00
2019-02-08T03:57:05.496Z,0.00
2019-02-08T03:58:05.489Z,0.00
2019-02-08T03:59:05.485Z,0.00
2019-02-08T04:00:05.470Z,0.00
2019-02-08T04:01:05.458Z,0.00
2019-02-08T04:02:05.451Z,0.00
2019-02-08T04:03:05.439Z,0.00
2019-02-08T04:04:05.423Z,0.00
2019-02-08T04:05:05.422Z,0.00
2019-02-08T04:06:05.409Z,0.00
2019-02-08T04:07:05.395Z,0.00
2019-02-08T04:08:05.385Z,0.00
2019-02-08T04:09:05.370Z,0.00
2019-02-08T04:10:05.391Z,0.00
2019-02-08T04:11:05.355Z,0.00
2019-02-08T04:12:05.349Z,0.00
2019-02-08T04:13:05.332Z,0.00
2019-02-08T04:14:05.330Z,0.00
2019-02-08T04:15:05.312Z,0.00
2019-02-08T04:16:05.314Z,0.00
2019-02-08T04:17:05.299Z,0.00
2019-02-08T04:18:05.283Z,0.00
2019-02-08T04:19:05.271Z,0.00
2019-02-08T04:20:05.272Z,0.00
2019-02-08T04:21:05.284Z,0.00
2019-02-08T04:22:05.239Z,0.00
2019-02-08T04:23:05.225Z,0.00
2019-02-08T04:24:05.221Z,0.00
2019-02-08T04:25:05.210Z,0.00
2019-02-08T04:26:05.203Z,0.00
2019-02-08T04:27:05.192Z,0.00
2019-02-08T04:28:05.174Z,0.00
2019-02-08T04:29:05.163Z,0.00
2019-02-08T04:30:05.167Z,0.00
2019-02-08T04:31:05.152Z,0.00
2019-02-08T04:32:05.139Z,0.00
2019-02-08T04:33:05.127Z,0.00
2019-02-08T04:34:05.110Z,0.00
2019-02-08T04:35:05.106Z,0.00
2019-02-08T04:36:05.110Z,0.00
2019-02-08T04:37:05.079Z,0.00
2019-02-08T04:38:05.077Z,0.00
2019-02-08T04:39:05.065Z,0.00
2019-02-08T04:40:05.049Z,0.00
2019-02-08T04:41:05.047Z,0.00
2019-02-08T04:42:05.033Z,0.00
2019-02-08T04:43:05.022Z,0.00
2019-02-08T04:44:05.007Z,0.00
2019-02-08T04:45:05.002Z,0.00
2019-02-08T04:46:04.998Z,0.00
2019-02-08T04:47:04.999Z,0.00
2019-02-08T04:48:04.967Z,0.00
2019-02-08T04:49:04.959Z,0.00
2019-02-08T04:50:04.949Z,0.00
2019-02-08T04:51:04.976Z,0.00
2019-02-08T04:52:04.930Z,0.00
2019-02-08T04:53:04.916Z,0.00
2019-02-08T04:54:04.904Z,0.00
2019-02-08T04:55:04.896Z,0.00
2019-02-08T04:56:04.889Z,0.00
2019-02-08T04:57:04.883Z,0.00
2019-02-08T04:58:04.867Z,0.00
2019-02-08T04:59:04.858Z,0.00
2019-02-08T05:00:04.851Z,0.00
2019-02-08T05:01:04.837Z,0.00
2019-02-08T05:02:04.829Z,0.00
2019-02-08T05:03:04.815Z,0.00
2019-02-08T05:04:04.801Z,0.00
2019-02-08T05:05:04.809Z,0.00
2019-02-08T05:06:04.784Z,0.00
2019-02-08T05:07:04.788Z,0.00
2019-02-08T05:08:04.762Z,0.00
2019-02-08T05:09:04.754Z,0.00
2019-02-08T05:10:04.744Z,0.00
2019-02-08T05:11:04.727Z,0.00
2019-02-08T05:12:04.720Z,0.00
2019-02-08T05:13:04.714Z,0.00
2019-02-08T05:14:04.711Z,0.00
2019-02-08T05:15:04.697Z,0.00
2019-02-08T05:16:04.674Z,0.00
2019-02-08T05:17:04.671Z,0.00
2019-02-08T05:18:04.655Z,0.00
2019-02-08T05:19:04.645Z,0.00
2019-02-08T05:20:04.675Z,0.00
2019-02-08T05:21:04.631Z,0.00
2019-02-08T05:22:04.611Z,0.00
2019-02-08T05:23:04.600Z,0.00
2019-02-08T05:24:04.596Z,0.00
2019-02-08T05:25:04.593Z,0.00
2019-02-08T05:26:04.581Z,0.00
2019-02-08T05:27:04.562Z,0.00
2019-02-08T05:28:04.556Z,0.00
2019-02-08T05:29:04.539Z,0.00
2019-02-08T05:30:04.536Z,0.00
2019-02-08T05:31:04.534Z,0.00
2019-02-08T05:32:04.513Z,0.00
2019-02-08T05:33:04.502Z,0.00
2019-02-08T05:34:04.500Z,0.00
2019-02-08T05:35:04.477Z,0.00
2019-02-08T05:36:04.478Z,0.00
2019-02-08T05:37:04.457Z,0.00
2019-02-08T05:38:04.451Z,0.00
2019-02-08T05:39:04.438Z,0.00
2019-02-08T05:40:04.427Z,0.00
2019-02-08T05:41:04.426Z,0.00
2019-02-08T05:42:04.418Z,0.00
2019-02-08T05:43:04.402Z,0.00
2019-02-08T05:44:04.382Z,0.00
2019-02-08T05:45:04.377Z,0.00
2019-02-08T05:46:04.366Z,0.00
2019-02-08T05:47:04.365Z,0.00
2019-02-08T05:48:04.353Z,0.00
2019-02-08T05:49:04.331Z,0.00
2019-02-08T05:50:04.329Z,0.00
2019-02-08T05:51:04.315Z,0.00
2019-02-08T05:52:05.970Z,0.00
2019-02-08T05:53:04.338Z,0.00
2019-02-08T05:54:04.292Z,0.00
2019-02-08T05:55:04.271Z,0.00
2019-02-08T05:56:04.270Z,0.00
2019-02-08T05:57:04.247Z,0.00
2019-02-08T05:58:04.238Z,0.00
2019-02-08T05:59:04.242Z,0.00
2019-02-08T06:00:04.216Z,0.00
2019-02-08T06:01:04.206Z,0.00
2019-02-08T06:02:04.213Z,0.00
2019-02-08T06:03:04.196Z,0.00
2019-02-08T06:04:04.187Z,0.00
2019-02-08T06:05:04.164Z,0.00
2019-02-08T06:06:04.156Z,0.00
2019-02-08T06:07:04.143Z,4.00
2019-02-08T06:08:04.147Z,4.00
2019-02-08T06:09:04.139Z,4.00
2019-02-08T06:10:04.117Z,0.00
2019-02-08T06:11:04.135Z,4.00
2019-02-08T06:12:04.092Z,4.00
2019-02-08T06:13:04.102Z,4.00
2019-02-08T06:14:04.073Z,4.00
2019-02-08T06:15:04.064Z,4.00
2019-02-08T06:16:04.073Z,8.00
2019-02-08T06:17:04.042Z,8.00
2019-02-08T06:18:04.035Z,8.00
2019-02-08T06:19:04.024Z,12.00
2019-02-08T06:20:04.019Z,16.00
2019-02-08T06:21:04.000Z,16.00
2019-02-08T06:22:03.993Z,20.00
2019-02-08T06:23:03.983Z,20.00
2019-02-08T06:24:03.974Z,24.00
2019-02-08T06:25:04.600Z,28.00
2019-02-08T06:26:03.953Z,36.00
2019-02-08T06:27:03.936Z,36.00
2019-02-08T06:28:03.927Z,44.00
2019-02-08T06:29:03.917Z,48.00
2019-02-08T06:30:03.928Z,52.00
2019-02-08T06:31:03.913Z,60.00
2019-02-08T06:32:03.883Z,68.00
2019-02-08T06:33:03.874Z,72.00
2019-02-08T06:34:03.875Z,84.00
2019-02-08T06:35:03.859Z,92.00
2019-02-08T06:36:03.853Z,100.00
2019-02-08T06:37:03.839Z,112.00
2019-02-08T06:38:03.826Z,124.00
2019-02-08T06:39:03.818Z,132.00
2019-02-08T06:40:03.810Z,144.00
2019-02-08T06:41:03.810Z,160.00
2019-02-08T06:42:03.795Z,176.00
2019-02-08T06:43:03.778Z,188.00
2019-02-08T06:44:03.765Z,200.00
2019-02-08T06:45:03.754Z,220.00
2019-02-08T06:46:03.750Z,236.00
2019-02-08T06:47:03.746Z,248.00
2019-02-08T06:48:03.725Z,268.00
2019-02-08T06:49:03.709Z,280.00
2019-02-08T06:50:03.700Z,296.00
2019-02-08T06:51:04.215Z,316.00
2019-02-08T06:52:03.726Z,336.00
2019-02-08T06:53:03.672Z,352.00
2019-02-08T06:54:03.662Z,372.00
2019-02-08T06:55:10.435Z,392.00
2019-02-08T06:56:04.641Z,416.00
2019-02-08T06:57:03.630Z,432.00
2019-02-08T06:58:03.625Z,452.00
2019-02-08T06:59:03.615Z,476.00
2019-02-08T07:00:03.600Z,492.00
2019-02-08T07:01:03.593Z,516.00
2019-02-08T07:02:03.576Z,540.00
2019-02-08T07:03:03.599Z,564.00
2019-02-08T07:04:03.560Z,584.00
2019-02-08T07:05:03.543Z,608.00
2019-02-08T07:06:03.538Z,632.00
2019-02-08T07:07:03.522Z,660.00
2019-02-08T07:08:03.512Z,688.00
2019-02-08T07:09:03.510Z,716.00
2019-02-08T07:10:03.491Z,756.00
2019-02-08T07:11:03.495Z,784.00
2019-02-08T07:12:03.476Z,824.00
2019-02-08T07:13:03.465Z,852.00
2019-02-08T07:14:03.462Z,864.00
2019-02-08T07:15:03.439Z,888.00
2019-02-08T07:16:03.427Z,916.00
2019-02-08T07:17:03.428Z,936.00
2019-02-08T07:18:03.416Z,984.00
2019-02-08T07:19:03.432Z,996.00
2019-02-08T07:20:03.386Z,1024.00
2019-02-08T07:21:03.375Z,1176.00
2019-02-08T07:22:03.377Z,1192.00
2019-02-08T07:23:03.386Z,1076.00
2019-02-08T07:24:03.373Z,1084.00
2019-02-08T07:25:03.349Z,1168.00
2019-02-08T07:26:03.330Z,1260.00
2019-02-08T07:27:03.313Z,1252.00
2019-02-08T07:28:03.303Z,1208.00
2019-02-08T07:29:03.303Z,1216.00
2019-02-08T07:30:03.295Z,1204.00
2019-02-08T07:31:03.283Z,1184.00
2019-02-08T07:32:03.272Z,1196.00
2019-02-08T07:33:03.252Z,1272.00
2019-02-08T07:34:03.241Z,1272.00
2019-02-08T07:35:03.241Z,1276.00
2019-02-08T07:36:03.270Z,1380.00
2019-02-08T07:37:03.215Z,1384.00
2019-02-08T07:38:03.204Z,1396.00
2019-02-08T07:39:03.188Z,1388.00
2019-02-08T07:40:03.184Z,1500.00
2019-02-08T07:41:03.178Z,1456.00
2019-02-08T07:42:03.172Z,1416.00
2019-02-08T07:43:03.147Z,1472.00
2019-02-08T07:44:03.137Z,1520.00
2019-02-08T07:45:03.138Z,1552.00
2019-02-08T07:46:03.118Z,1640.00
2019-02-08T07:47:03.106Z,1592.00
2019-02-08T07:48:03.095Z,1676.00
2019-02-08T07:49:03.088Z,1708.00
2019-02-08T07:50:03.094Z,1772.00
2019-02-08T07:51:03.071Z,1792.00
2019-02-08T07:52:03.059Z,1804.00
2019-02-08T07:53:03.046Z,1908.00
2019-02-08T07:54:03.031Z,2636.00
2019-02-08T07:55:03.025Z,3712.00
2019-02-08T07:56:03.025Z,5364.00
2019-02-08T07:57:03.001Z,4692.00
2019-02-08T07:58:03.025Z,3756.00
2019-02-08T07:59:02.978Z,3660.00
2019-02-08T08:00:02.974Z,3164.00
2019-02-08T08:01:02.958Z,3264.00
2019-02-08T08:02:02.955Z,3424.00
2019-02-08T08:03:02.942Z,5076.00
2019-02-08T08:04:02.953Z,5564.00
2019-02-08T08:05:02.954Z,5480.00
2019-02-08T08:06:02.907Z,4704.00
2019-02-08T08:07:02.905Z,6864.00
2019-02-08T08:08:02.892Z,7204.00
2019-02-08T08:09:02.879Z,4572.00
2019-02-08T08:10:02.870Z,4040.00
2019-02-08T08:11:02.868Z,3172.00
2019-02-08T08:12:02.842Z,3024.00
2019-02-08T08:13:02.833Z,2748.00
2019-02-08T08:14:02.824Z,2376.00
2019-02-08T08:15:10.548Z,2104.00
2019-02-08T08:16:02.807Z,2148.00
2019-02-08T08:17:02.805Z,2668.00
2019-02-08T08:18:02.783Z,3780.00
2019-02-08T08:19:02.767Z,3832.00
2019-02-08T08:20:02.762Z,7688.00
2019-02-08T08:21:02.747Z,7688.00
2019-02-08T08:22:02.750Z,8372.00
2019-02-08T08:23:02.746Z,8952.00
2019-02-08T08:24:02.720Z,7260.00
2019-02-08T08:25:02.704Z,5456.00
2019-02-08T08:26:02.700Z,4428.00
2019-02-08T08:27:02.687Z,3840.00
2019-02-08T08:28:02.722Z,4096.00
2019-02-08T08:29:02.661Z,5104.00
2019-02-08T08:30:02.653Z,6128.00
2019-02-08T08:31:02.641Z,7440.00
2019-02-08T08:32:02.632Z,7760.00
2019-02-08T08:33:02.625Z,7272.00
2019-02-08T08:34:02.621Z,9268.00
2019-02-08T08:35:02.599Z,8988.00
2019-02-08T08:36:02.591Z,6076.00
2019-02-08T08:37:02.578Z,6268.00
2019-02-08T08:38:02.568Z,5016.00
2019-02-08T08:39:02.570Z,4996.00
2019-02-08T08:40:02.560Z,8672.00
2019-02-08T08:41:02.546Z,3956.00
2019-02-08T08:42:02.529Z,4608.00
2019-02-08T08:43:02.526Z,7784.00
2019-02-08T08:44:02.518Z,7068.00
2019-02-08T08:45:02.510Z,8368.00
2019-02-08T08:46:02.486Z,6540.00
2019-02-08T08:47:02.476Z,5956.00
2019-02-08T08:48:02.459Z,6468.00
2019-02-08T08:49:02.461Z,6152.00
2019-02-08T08:50:02.439Z,6252.00
2019-02-08T08:51:02.433Z,5560.00
2019-02-08T08:52:02.426Z,5572.00
2019-02-08T08:53:02.408Z,5812.00
2019-02-08T08:54:02.442Z,6156.00
2019-02-08T08:55:02.390Z,6032.00
2019-02-08T08:56:02.379Z,7044.00
2019-02-08T08:57:02.364Z,7904.00
2019-02-08T08:58:02.354Z,7400.00
2019-02-08T08:59:02.350Z,7784.00
2019-02-08T09:00:02.352Z,8784.00
2019-02-08T09:01:02.327Z,11840.00
2019-02-08T09:02:02.311Z,13412.00
2019-02-08T09:03:02.300Z,12048.00
2019-02-08T09:04:02.298Z,13304.00
2019-02-08T09:05:02.285Z,13656.00
2019-02-08T09:06:08.416Z,12988.00
2019-02-08T09:07:03.264Z,12704.00
2019-02-08T09:08:02.251Z,11908.00
2019-02-08T09:09:02.242Z,10468.00
2019-02-08T09:10:02.233Z,11652.00
2019-02-08T09:11:02.219Z,11804.00
2019-02-08T09:12:02.205Z,12460.00
2019-02-08T09:13:02.193Z,14464.00
2019-02-08T09:14:02.190Z,16288.00
2019-02-08T09:15:02.186Z,19392.00
2019-02-08T09:16:02.162Z,20480.00
2019-02-08T09:17:02.150Z,19968.00
2019-02-08T09:18:02.146Z,15872.00
2019-02-08T09:19:02.150Z,15104.00
2019-02-08T09:20:02.119Z,16800.00
2019-02-08T09:21:02.110Z,17312.00
2019-02-08T09:22:02.110Z,16800.00
2019-02-08T09:23:02.091Z,13144.00
2019-02-08T09:24:02.080Z,9136.00
2019-02-08T09:25:02.089Z,11420.00
2019-02-08T09:26:02.060Z,12652.00
2019-02-08T09:27:02.067Z,12684.00
2019-02-08T09:28:02.038Z,12232.00
2019-02-08T09:29:02.022Z,13156.00
2019-02-08T09:30:02.021Z,11324.00
2019-02-08T09:31:02.007Z,8872.00
2019-02-08T09:32:03.205Z,7624.00
2019-02-08T09:33:01.982Z,8364.00
2019-02-08T09:34:01.974Z,12100.00
2019-02-08T09:35:01.958Z,9676.00
2019-02-08T09:36:01.952Z,10496.00
2019-02-08T09:37:01.949Z,10660.00
2019-02-08T09:38:01.967Z,12828.00
2019-02-08T09:39:01.917Z,13492.00
2019-02-08T09:40:01.911Z,15840.00
2019-02-08T09:41:01.903Z,13292.00
2019-02-08T09:42:01.897Z,14016.00
2019-02-08T09:43:01.877Z,15360.00
2019-02-08T09:44:01.873Z,15296.00
2019-02-08T09:45:01.853Z,9632.00
2019-02-08T09:46:01.852Z,9820.00
2019-02-08T09:47:01.834Z,14088.00
2019-02-08T09:48:01.819Z,15456.00
2019-02-08T09:49:01.851Z,13824.00
2019-02-08T09:50:01.804Z,11948.00
2019-02-08T09:51:01.791Z,10976.00
2019-02-08T09:52:01.788Z,12252.00
2019-02-08T09:53:01.776Z,8764.00
2019-02-08T09:54:01.756Z,7392.00
2019-02-08T09:55:01.756Z,11884.00
2019-02-08T09:56:01.741Z,12704.00
2019-02-08T09:57:01.742Z,12040.00
2019-02-08T09:58:01.721Z,13608.00
2019-02-08T09:59:01.707Z,10848.00
2019-02-08T10:00:01.699Z,10612.00
2019-02-08T10:01:01.683Z,12620.00
2019-02-08T10:02:01.698Z,15872.00
2019-02-08T10:03:01.675Z,14984.00
2019-02-08T10:04:01.647Z,5840.00
2019-02-08T10:05:01.643Z,4764.00
2019-02-08T10:06:01.626Z,11248.00
2019-02-08T10:07:01.627Z,13020.00
2019-02-08T10:08:01.609Z,15796.00
2019-02-08T10:09:01.602Z,12048.00
2019-02-08T10:10:01.595Z,13656.00
2019-02-08T10:11:01.578Z,16768.00
2019-02-08T10:12:01.577Z,19456.00
2019-02-08T10:13:01.552Z,25664.00
2019-02-08T10:14:01.545Z,18944.00
2019-02-08T10:15:01.535Z,10348.00
2019-02-08T10:16:01.518Z,4800.00
2019-02-08T10:17:01.510Z,5308.00
2019-02-08T10:18:01.505Z,9820.00
2019-02-08T10:19:01.499Z,19456.00
2019-02-08T10:20:01.481Z,13748.00
2019-02-08T10:21:01.465Z,8668.00
2019-02-08T10:22:01.454Z,11996.00
2019-02-08T10:23:01.489Z,10508.00
2019-02-08T10:24:01.436Z,8408.00
2019-02-08T10:25:01.422Z,8788.00
2019-02-08T10:26:05.483Z,8780.00
2019-02-08T10:27:01.406Z,7696.00
2019-02-08T10:28:01.396Z,7492.00
2019-02-08T10:29:01.394Z,7820.00
2019-02-08T10:30:01.373Z,8216.00
2019-02-08T10:31:01.361Z,8060.00
2019-02-08T10:32:01.353Z,8104.00
2019-02-08T10:33:01.344Z,8412.00
2019-02-08T10:34:01.356Z,8468.00
2019-02-08T10:35:01.318Z,8736.00
2019-02-08T10:36:01.309Z,9000.00
2019-02-08T10:37:01.296Z,8636.00
2019-02-08T10:38:01.282Z,8404.00
2019-02-08T10:39:01.272Z,8164.00
2019-02-08T10:40:01.278Z,8172.00
2019-02-08T10:41:01.259Z,8148.00
2019-02-08T10:42:01.246Z,8208.00
2019-02-08T10:43:01.229Z,8372.00
2019-02-08T10:44:01.219Z,8752.00
2019-02-08T10:45:01.224Z,9340.00
2019-02-08T10:46:01.205Z,9516.00
2019-02-08T10:47:01.224Z,9348.00
2019-02-08T10:48:01.175Z,8140.00
2019-02-08T10:49:01.178Z,6664.00
2019-02-08T10:50:01.174Z,5308.00
2019-02-08T10:51:01.153Z,5176.00
2019-02-08T10:52:01.133Z,5676.00
2019-02-08T10:53:01.127Z,6604.00
2019-02-08T10:54:01.116Z,7168.00
2019-02-08T10:55:01.116Z,6704.00
2019-02-08T10:56:01.103Z,6528.00
2019-02-08T10:57:01.082Z,6364.00
2019-02-08T10:58:01.075Z,6832.00
2019-02-08T10:59:01.063Z,7108.00
2019-02-08T11:00:01.101Z,10380.00
2019-02-08T11:01:01.049Z,12496.00
2019-02-08T11:02:01.034Z,7228.00
2019-02-08T11:03:01.020Z,7720.00
2019-02-08T11:04:01.009Z,7984.00
2019-02-08T11:05:00.992Z,8060.00
2019-02-08T11:06:00.992Z,8064.00
2019-02-08T11:07:00.971Z,8140.00
2019-02-08T11:08:00.968Z,8608.00
2019-02-08T11:09:00.958Z,9616.00
2019-02-08T11:10:00.946Z,10164.00
2019-02-08T11:11:00.943Z,11824.00
2019-02-08T11:12:00.923Z,9728.00
2019-02-08T11:13:00.913Z,9616.00
2019-02-08T11:14:00.901Z,9408.00
2019-02-08T11:15:00.886Z,9600.00
2019-02-08T11:16:00.883Z,10212.00
2019-02-08T11:17:00.879Z,13972.00
2019-02-08T11:18:00.861Z,10852.00
2019-02-08T11:19:00.845Z,9740.00
2019-02-08T11:20:00.834Z,9036.00
2019-02-08T11:21:00.826Z,10236.00
2019-02-08T11:22:00.842Z,9080.00
2019-02-08T11:23:00.801Z,9020.00
2019-02-08T11:24:00.795Z,8460.00
2019-02-08T11:25:00.790Z,9544.00
2019-02-08T11:26:00.776Z,8840.00
2019-02-08T11:27:00.758Z,9752.00
2019-02-08T11:28:00.770Z,12012.00
2019-02-08T11:29:00.735Z,9732.00
2019-02-08T11:30:00.726Z,9072.00
2019-02-08T11:31:00.719Z,8888.00
2019-02-08T11:32:00.723Z,9376.00
2019-02-08T11:34:09.463Z,8196.00
2019-02-08T11:35:09.442Z,9180.00
2019-02-08T11:36:09.431Z,13416.00
2019-02-08T11:37:09.444Z,14964.00
2019-02-08T11:38:09.418Z,19424.00
2019-02-08T11:39:09.412Z,9176.00
2019-02-08T11:40:09.391Z,9276.00
2019-02-08T11:41:09.382Z,8904.00
2019-02-08T11:42:09.385Z,12132.00
2019-02-08T11:43:09.366Z,8480.00
2019-02-08T11:44:09.352Z,20672.00
2019-02-08T11:45:09.341Z,13084.00
2019-02-08T11:46:09.326Z,14600.00
2019-02-08T11:47:09.321Z,9888.00
2019-02-08T11:48:09.406Z,12608.00
2019-02-08T11:49:09.295Z,11868.00
2019-02-08T11:50:09.288Z,8228.00
2019-02-08T11:51:09.332Z,7916.00
2019-02-08T11:52:09.262Z,7936.00
2019-02-08T11:53:09.249Z,6936.00
2019-02-08T11:54:09.307Z,5924.00
2019-02-08T11:55:09.229Z,6108.00
2019-02-08T11:56:09.221Z,6252.00
2019-02-08T11:57:09.253Z,6772.00
2019-02-08T11:58:09.204Z,7464.00
2019-02-08T11:59:09.208Z,8308.00
2019-02-08T12:00:09.176Z,6328.00
2019-02-08T12:01:09.167Z,7844.00
2019-02-08T12:02:09.158Z,7448.00
2019-02-08T12:03:09.151Z,7332.00
2019-02-08T12:04:09.145Z,8224.00
2019-02-08T12:05:09.127Z,9128.00
2019-02-08T12:06:09.111Z,8696.00
2019-02-08T12:07:09.108Z,8888.00
2019-02-08T12:08:09.096Z,9444.00
2019-02-08T12:09:09.123Z,10384.00
2019-02-08T12:10:09.068Z,9772.00
2019-02-08T12:11:09.056Z,9316.00
2019-02-08T12:12:09.047Z,9176.00
2019-02-08T12:13:09.036Z,8956.00
2019-02-08T12:14:09.097Z,8652.00
2019-02-08T12:15:09.654Z,7780.00
2019-02-08T12:16:09.062Z,7316.00
2019-02-08T12:17:08.992Z,6744.00
2019-02-08T12:18:09.014Z,6696.00
2019-02-08T12:19:08.978Z,6356.00
2019-02-08T12:20:08.990Z,5656.00
2019-02-08T12:21:08.985Z,5844.00
2019-02-08T12:22:08.940Z,5544.00
2019-02-08T12:23:08.933Z,4932.00
2019-02-08T12:24:08.922Z,5640.00
2019-02-08T12:25:08.910Z,6520.00
2019-02-08T12:26:08.908Z,6748.00
2019-02-08T12:27:09.695Z,6592.00
2019-02-08T12:28:08.882Z,6580.00
2019-02-08T12:29:08.866Z,7384.00
2019-02-08T12:30:08.883Z,6956.00
2019-02-08T12:31:08.879Z,6612.00
2019-02-08T12:32:08.840Z,6368.00
2019-02-08T12:33:08.833Z,5724.00
2019-02-08T12:34:08.817Z,5532.00
2019-02-08T12:35:08.815Z,5148.00
2019-02-08T12:36:08.790Z,4708.00
2019-02-08T12:37:08.787Z,4700.00
2019-02-08T12:38:08.773Z,4804.00
2019-02-08T12:39:08.827Z,4736.00
2019-02-08T12:40:08.759Z,4580.00